createdAt,value
2023-12-12T00:01:29.766Z,11.40
2023-12-12T00:06:34.812Z,11.50
2023-12-12T00:09:07.269Z,11.50
2023-12-12T00:11:39.183Z,11.50
2023-12-12T00:14:11.772Z,11.50
2023-12-12T00:16:44.011Z,11.50
2023-12-12T00:19:16.059Z,11.50
2023-12-12T00:21:49.800Z,11.40
2023-12-12T00:24:21.786Z,11.40
2023-12-12T00:26:54.805Z,11.40
2023-12-12T00:29:26.790Z,11.40
2023-12-12T00:31:59.268Z,12.70
2023-12-12T00:34:31.537Z,11.40
2023-12-12T00:37:04.524Z,11.40
2023-12-12T00:39:42.901Z,11.40
2023-12-12T00:42:14.894Z,11.40
2023-12-12T00:47:19.663Z,11.40
2023-12-12T00:52:25.236Z,11.50
2023-12-12T00:55:00.773Z,11.50
2023-12-12T00:57:33.157Z,11.50
2023-12-12T01:00:06.773Z,11.50
2023-12-12T01:02:38.714Z,11.60
2023-12-12T01:05:11.576Z,11.60
2023-12-12T01:10:16.713Z,11.00
2023-12-12T01:15:21.416Z,10.70
2023-12-12T01:17:54.053Z,10.90
2023-12-12T01:20:26.044Z,11.00
2023-12-12T01:22:58.561Z,11.10
2023-12-12T01:25:31.270Z,10.50
2023-12-12T01:28:04.560Z,10.40
2023-12-12T01:30:39.434Z,10.40
2023-12-12T01:35:45.391Z,10.00
2023-12-12T01:38:17.318Z,10.00
2023-12-12T01:43:30.359Z,10.00
2023-12-12T01:46:16.421Z,9.80
2023-12-12T01:48:49.709Z,9.90
2023-12-12T01:53:55.400Z,9.80
2023-12-12T01:56:32.081Z,9.70
2023-12-12T01:59:05.992Z,9.50
2023-12-12T02:01:39.780Z,9.50
2023-12-12T02:04:12.579Z,9.60
2023-12-12T02:06:48.403Z,9.60
2023-12-12T02:09:21.059Z,9.60
2023-12-12T02:11:53.856Z,9.70
2023-12-12T02:14:26.104Z,9.80
2023-12-12T02:16:58.508Z,9.80
2023-12-12T02:19:31.087Z,9.80
2023-12-12T02:22:03.677Z,9.90
2023-12-12T02:27:09.012Z,9.90
2023-12-12T02:29:41.095Z,9.80
2023-12-12T02:32:13.658Z,9.80
2023-12-12T02:37:19.900Z,9.70
2023-12-12T02:39:52.220Z,9.60
2023-12-12T02:42:24.138Z,9.70
2023-12-12T02:44:59.700Z,9.50
2023-12-12T02:47:31.907Z,9.50
2023-12-12T02:50:05.171Z,9.50
2023-12-12T02:52:37.536Z,9.40
2023-12-12T02:55:09.809Z,9.50
2023-12-12T02:57:42.382Z,9.50
2023-12-12T03:00:14.909Z,9.60
2023-12-12T03:05:19.945Z,9.60
2023-12-12T03:07:52.510Z,9.60
2023-12-12T03:10:24.737Z,9.50
2023-12-12T03:12:56.749Z,9.50
2023-12-12T03:15:29.167Z,9.60
2023-12-12T03:25:39.368Z,9.40
2023-12-12T03:28:13.625Z,9.40
2023-12-12T03:30:45.612Z,9.40
2023-12-12T03:33:18.231Z,9.50
2023-12-12T03:35:50.341Z,9.50
2023-12-12T03:38:25.858Z,9.50
2023-12-12T03:40:58.721Z,9.50
2023-12-12T03:43:30.709Z,9.60
2023-12-12T03:46:03.200Z,9.60
2023-12-12T03:48:35.705Z,9.90
2023-12-12T03:51:13.617Z,10.20
2023-12-12T03:53:45.896Z,10.20
2023-12-12T03:56:18.190Z,10.10
2023-12-12T03:58:50.197Z,10.00
2023-12-12T04:01:23.651Z,9.80
2023-12-12T04:03:56.607Z,9.70
2023-12-12T04:09:01.661Z,9.80
2023-12-12T04:11:34.311Z,9.80
2023-12-12T04:14:06.301Z,9.80
2023-12-12T04:16:40.375Z,9.80
2023-12-12T04:21:45.600Z,9.80
2023-12-12T04:24:17.554Z,9.90
2023-12-12T04:26:50.149Z,9.90
2023-12-12T04:29:22.095Z,10.00
2023-12-12T04:34:27.114Z,10.30
2023-12-12T04:37:00.995Z,10.20
2023-12-12T04:39:32.928Z,10.20
2023-12-12T04:42:06.078Z,10.30
2023-12-12T04:44:38.144Z,10.10
2023-12-12T04:47:11.080Z,10.10
2023-12-12T04:52:17.356Z,9.90
2023-12-12T04:54:49.372Z,9.90
2023-12-12T04:57:22.009Z,10.00
2023-12-12T04:59:53.927Z,10.40
2023-12-12T05:04:59.853Z,10.10
2023-12-12T05:07:32.811Z,10.10
2023-12-12T05:10:06.788Z,10.10
2023-12-12T05:15:11.924Z,9.90
2023-12-12T05:20:17.556Z,10.10
2023-12-12T05:22:50.296Z,10.10
2023-12-12T05:27:59.117Z,10.20
2023-12-12T05:30:31.116Z,10.30
2023-12-12T05:33:04.014Z,10.20
2023-12-12T05:35:36.226Z,9.90
2023-12-12T05:38:08.844Z,9.90
2023-12-12T05:40:40.978Z,9.90
2023-12-12T05:43:14.065Z,10.00
2023-12-12T05:45:46.613Z,10.00
2023-12-12T05:50:51.715Z,10.30
2023-12-12T05:53:24.601Z,10.30
2023-12-12T05:58:30.159Z,10.40
2023-12-12T06:01:03.964Z,10.30
2023-12-12T06:08:44.296Z,10.40
2023-12-12T06:11:17.292Z,10.40
2023-12-12T06:13:49.925Z,10.40
2023-12-12T06:16:22.042Z,10.30
2023-12-12T06:18:55.024Z,10.30
2023-12-12T06:24:03.745Z,10.10
2023-12-12T06:26:35.922Z,10.20
2023-12-12T06:29:10.480Z,10.20
2023-12-12T06:31:42.764Z,10.20
2023-12-12T06:34:15.678Z,10.30
2023-12-12T06:36:47.777Z,10.30
2023-12-12T06:39:20.736Z,10.30
2023-12-12T06:41:52.708Z,10.40
2023-12-12T06:44:25.365Z,10.50
2023-12-12T06:49:30.624Z,10.40
2023-12-12T06:54:37.428Z,10.50
2023-12-12T06:57:09.511Z,10.60
2023-12-12T06:59:42.147Z,10.40
2023-12-12T07:02:14.215Z,10.50
2023-12-12T07:04:47.020Z,10.50
2023-12-12T07:07:19.014Z,10.60
2023-12-12T07:15:06.672Z,10.50
2023-12-12T07:20:13.543Z,10.30
2023-12-12T07:22:45.686Z,10.30
2023-12-12T07:25:18.475Z,10.40
2023-12-12T07:27:51.602Z,10.30
2023-12-12T07:30:24.254Z,10.20
2023-12-12T07:32:57.351Z,10.10
2023-12-12T07:38:02.476Z,10.10
2023-12-12T07:40:35.153Z,10.00
2023-12-12T07:43:07.207Z,10.00
2023-12-12T07:45:39.961Z,10.00
2023-12-12T07:48:12.028Z,10.00
2023-12-12T07:50:44.778Z,10.00
2023-12-12T07:58:22.256Z,10.10
2023-12-12T08:00:55.180Z,10.20
2023-12-12T08:03:27.574Z,10.20
2023-12-12T08:08:34.341Z,10.20
2023-12-12T08:11:14.689Z,10.30
2023-12-12T08:18:52.528Z,10.30
2023-12-12T08:21:25.602Z,10.30
2023-12-12T08:24:08.817Z,10.30
2023-12-12T08:26:50.216Z,10.20
2023-12-12T08:31:58.686Z,10.10
2023-12-12T08:34:34.677Z,10.10
2023-12-12T08:37:07.030Z,12.50
2023-12-12T08:42:15.259Z,10.10
2023-12-12T08:44:47.229Z,10.10
2023-12-12T08:47:19.921Z,10.10
2023-12-12T08:54:57.825Z,10.80
2023-12-12T09:00:05.041Z,11.90
2023-12-12T09:02:38.663Z,12.40
2023-12-12T09:10:16.334Z,12.80
2023-12-12T09:12:48.997Z,13.00
2023-12-12T09:15:21.039Z,13.00
2023-12-12T09:18:05.890Z,12.90
2023-12-12T09:20:46.040Z,13.00
2023-12-12T09:23:18.839Z,13.00
2023-12-12T09:25:51.018Z,13.10
2023-12-12T09:28:25.204Z,12.90
2023-12-12T09:30:57.472Z,13.00
2023-12-12T09:33:30.385Z,13.00
2023-12-12T09:38:35.289Z,13.00
2023-12-12T09:41:10.399Z,13.00
2023-12-12T09:43:42.887Z,13.00
2023-12-12T09:46:16.485Z,13.00
2023-12-12T09:48:50.796Z,13.00
2023-12-12T09:51:25.520Z,13.10
2023-12-12T09:53:58.233Z,13.10
2023-12-12T09:56:30.710Z,13.20
2023-12-12T10:01:36.687Z,13.30
2023-12-12T10:04:11.584Z,13.30
2023-12-12T10:09:17.680Z,13.30
2023-12-12T10:11:49.757Z,13.30
2023-12-12T10:14:40.491Z,13.30
2023-12-12T10:17:12.907Z,13.30
2023-12-12T10:22:18.806Z,13.40
2023-12-12T10:24:54.450Z,13.40
2023-12-12T10:27:26.393Z,13.40
2023-12-12T10:30:07.633Z,13.40
2023-12-12T10:37:45.134Z,13.30
2023-12-12T10:40:24.124Z,13.20
2023-12-12T10:42:56.833Z,13.40
2023-12-12T10:45:31.503Z,13.30
2023-12-12T10:48:06.478Z,13.30
2023-12-12T10:50:40.281Z,13.30
2023-12-12T10:53:13.243Z,13.40
2023-12-12T10:55:46.232Z,13.50
2023-12-12T10:58:19.010Z,13.50
2023-12-12T11:00:52.638Z,13.50
2023-12-12T11:03:25.010Z,13.80
2023-12-12T11:05:59.551Z,13.80
2023-12-12T11:08:32.025Z,13.80
2023-12-12T11:11:13.597Z,13.80
2023-12-12T11:16:19.590Z,14.00
2023-12-12T11:18:54.111Z,14.00
2023-12-12T11:21:47.053Z,14.10
2023-12-12T11:26:55.326Z,14.20
2023-12-12T11:32:05.494Z,14.40
2023-12-12T11:34:39.815Z,14.40
2023-12-12T11:37:12.517Z,14.40
2023-12-12T11:39:50.789Z,14.40
2023-12-12T11:42:27.956Z,14.40
2023-12-12T11:45:00.206Z,14.40
2023-12-12T11:47:36.245Z,14.50
2023-12-12T11:50:16.517Z,14.40
2023-12-12T11:52:49.679Z,14.60
2023-12-12T11:55:30.088Z,14.50
2023-12-12T11:58:08.518Z,14.60
2023-12-12T12:00:45.121Z,14.70
2023-12-12T12:03:23.108Z,14.70
2023-12-12T12:08:28.404Z,14.70
2023-12-12T12:13:44.323Z,14.80
2023-12-12T12:21:26.807Z,14.80
2023-12-12T12:23:59.444Z,14.80
2023-12-12T12:26:35.939Z,14.80
2023-12-12T12:29:11.801Z,14.80
2023-12-12T12:34:23.231Z,14.80
2023-12-12T12:36:59.968Z,14.80
2023-12-12T12:39:45.857Z,14.90
2023-12-12T12:42:18.579Z,14.80
2023-12-12T12:44:55.217Z,14.80
2023-12-12T12:47:28.120Z,14.80
2023-12-12T12:52:34.035Z,14.70
2023-12-12T12:55:07.409Z,14.70
2023-12-12T13:02:47.042Z,14.60
2023-12-12T13:07:55.829Z,14.60
2023-12-12T13:13:21.642Z,14.40
2023-12-12T13:15:54.246Z,14.20
2023-12-12T13:18:27.100Z,13.90
2023-12-12T13:20:59.120Z,13.80
2023-12-12T13:23:32.047Z,13.70
2023-12-12T13:28:40.528Z,13.50
2023-12-12T13:31:13.749Z,13.60
2023-12-12T13:36:20.520Z,13.40
2023-12-12T13:41:27.858Z,13.20
2023-12-12T13:44:00.644Z,13.10
2023-12-12T14:01:59.961Z,13.00
2023-12-12T14:07:05.617Z,13.00
2023-12-12T14:09:37.731Z,13.00
2023-12-12T14:12:12.159Z,13.00
2023-12-12T14:14:44.319Z,13.00
2023-12-12T14:17:17.198Z,13.00
2023-12-12T14:24:55.406Z,13.00
2023-12-12T14:27:28.320Z,13.00
2023-12-12T14:32:34.030Z,13.00
2023-12-12T14:35:08.357Z,13.20
2023-12-12T14:42:51.526Z,13.40
2023-12-12T14:48:00.507Z,13.50
2023-12-12T14:50:32.598Z,13.60
2023-12-12T14:53:11.140Z,13.50
2023-12-12T15:00:50.011Z,13.70
2023-12-12T15:11:02.371Z,13.90
2023-12-12T15:16:10.537Z,13.90
2023-12-12T15:23:48.874Z,14.00
2023-12-12T15:31:32.475Z,13.80
2023-12-12T15:34:04.786Z,13.80
2023-12-12T15:36:38.181Z,14.00
2023-12-12T15:39:10.190Z,14.10
2023-12-12T15:41:43.002Z,14.10
2023-12-12T15:49:20.717Z,13.90
2023-12-12T15:51:53.548Z,14.00
2023-12-12T15:56:59.372Z,13.90
2023-12-12T15:59:35.867Z,13.90
2023-12-12T16:07:16.130Z,14.00
2023-12-12T16:20:06.230Z,13.80
2023-12-12T16:25:12.670Z,13.90
2023-12-12T16:33:01.573Z,13.90
2023-12-12T16:38:06.591Z,13.70
2023-12-12T16:40:41.128Z,13.70
2023-12-12T16:43:17.666Z,13.60
2023-12-12T16:48:22.306Z,13.60
2023-12-12T16:50:56.386Z,13.50
2023-12-12T16:53:29.461Z,13.60
2023-12-12T16:56:02.013Z,13.60
2023-12-12T17:06:17.602Z,13.60
2023-12-12T17:08:52.458Z,13.50
2023-12-12T17:13:58.374Z,13.60
2023-12-12T17:21:38.774Z,13.60
2023-12-12T17:27:08.199Z,13.50
2023-12-12T17:29:41.290Z,13.50
2023-12-12T17:34:50.666Z,13.50
2023-12-12T17:45:03.494Z,13.50
2023-12-12T17:47:38.959Z,13.50
2023-12-12T17:50:15.799Z,13.50
2023-12-12T17:52:47.971Z,13.50
2023-12-12T17:55:20.780Z,13.50
2023-12-12T17:57:52.770Z,13.50
2023-12-12T18:00:25.101Z,13.50
2023-12-12T18:05:34.884Z,13.50
2023-12-12T18:08:06.918Z,13.40
2023-12-12T18:10:39.366Z,13.40
2023-12-12T18:13:11.401Z,13.40
2023-12-12T18:15:44.003Z,13.40
2023-12-12T18:25:59.252Z,13.30
2023-12-12T18:33:37.973Z,13.30
2023-12-12T18:36:11.861Z,13.30
2023-12-12T18:38:43.888Z,13.20
2023-12-12T18:43:50.799Z,13.10
2023-12-12T18:46:23.521Z,13.10
2023-12-12T18:48:56.434Z,13.10
2023-12-12T18:51:29.090Z,13.00
2023-12-12T18:54:01.132Z,13.10
2023-12-12T18:56:34.514Z,13.10
2023-12-12T18:59:06.656Z,13.10
2023-12-12T19:01:39.395Z,13.10
2023-12-12T19:04:11.489Z,13.00
2023-12-12T19:06:44.312Z,12.90
2023-12-12T19:09:16.482Z,12.80
2023-12-12T19:11:49.204Z,12.80
2023-12-12T19:16:54.507Z,12.80
2023-12-12T19:19:26.605Z,12.90
2023-12-12T19:21:59.292Z,13.00
2023-12-12T19:24:31.284Z,13.00
2023-12-12T19:29:37.996Z,13.10
2023-12-12T19:34:42.980Z,13.00
2023-12-12T19:39:48.491Z,13.00
2023-12-12T19:47:27.349Z,12.90
2023-12-12T19:52:37.394Z,12.80
2023-12-12T19:55:16.119Z,12.80
2023-12-12T19:57:50.782Z,12.80
2023-12-12T20:00:24.874Z,12.80
2023-12-12T20:02:57.860Z,12.70
2023-12-12T20:05:32.580Z,12.70
2023-12-12T20:10:39.957Z,12.60
2023-12-12T20:13:13.520Z,12.60
2023-12-12T20:15:46.767Z,12.50
2023-12-12T20:23:27.764Z,12.60
2023-12-12T20:28:34.260Z,12.50
2023-12-12T20:31:06.378Z,12.50
2023-12-12T20:33:39.307Z,12.50
2023-12-12T20:36:14.359Z,12.40
2023-12-12T20:38:47.521Z,12.40
2023-12-12T20:41:19.607Z,12.40
2023-12-12T20:43:52.312Z,12.50
2023-12-12T20:48:57.929Z,12.40
2023-12-12T20:54:07.888Z,12.50
2023-12-12T20:59:15.520Z,12.30
2023-12-12T21:01:48.875Z,12.30
2023-12-12T21:04:21.756Z,12.30
2023-12-12T21:09:27.162Z,12.00
2023-12-12T21:14:32.389Z,11.80
2023-12-12T21:22:10.361Z,10.50
2023-12-12T21:24:44.151Z,10.30
2023-12-12T21:27:16.091Z,10.40
2023-12-12T21:29:49.097Z,10.40
2023-12-12T21:34:54.868Z,10.10
2023-12-12T21:37:26.901Z,10.10
2023-12-12T21:40:02.987Z,10.00
2023-12-12T21:42:35.061Z,10.00
2023-12-12T21:45:08.004Z,9.90
2023-12-12T21:47:39.975Z,9.80
2023-12-12T21:50:12.802Z,9.80
2023-12-12T21:52:45.428Z,9.70
2023-12-12T21:55:18.225Z,9.70
2023-12-12T22:00:23.345Z,9.40
2023-12-12T22:02:55.294Z,9.40
2023-12-12T22:08:00.311Z,9.40
2023-12-12T22:10:32.624Z,9.40
2023-12-12T22:13:04.627Z,9.50
2023-12-12T22:18:09.964Z,9.50
2023-12-12T22:20:43.189Z,9.70
2023-12-12T22:23:15.481Z,9.80
2023-12-12T22:25:48.476Z,9.80
2023-12-12T22:28:22.021Z,10.00
2023-12-12T22:30:54.881Z,10.00
2023-12-12T22:33:26.941Z,10.00
2023-12-12T22:36:00.132Z,10.00
2023-12-12T22:41:05.813Z,9.90
2023-12-12T22:43:41.479Z,10.00
2023-12-12T22:46:14.209Z,10.00
2023-12-12T22:51:20.447Z,10.00
2023-12-12T22:53:52.524Z,10.00
2023-12-12T22:56:25.341Z,10.00
2023-12-12T22:59:00.130Z,10.00
2023-12-12T23:01:33.260Z,10.00
2023-12-12T23:04:05.555Z,10.00
2023-12-12T23:06:38.333Z,10.00
2023-12-12T23:09:11.646Z,10.10
2023-12-12T23:11:47.182Z,10.00
2023-12-12T23:14:21.692Z,10.00
2023-12-12T23:16:54.410Z,10.00
2023-12-12T23:19:26.467Z,9.80
2023-12-12T23:21:59.124Z,9.70
2023-12-12T23:24:32.316Z,9.70
2023-12-12T23:27:05.146Z,9.50
2023-12-12T23:29:37.103Z,9.70
2023-12-12T23:32:09.815Z,9.80
2023-12-12T23:34:47.648Z,9.90
2023-12-12T23:37:21.267Z,10.10
2023-12-12T23:39:54.042Z,10.20
2023-12-12T23:42:26.757Z,10.30
2023-12-12T23:45:04.443Z,10.40
2023-12-12T23:47:37.406Z,10.50
2023-12-12T23:50:10.090Z,10.50
2023-12-12T23:52:42.795Z,10.50
2023-12-12T23:55:15.993Z,10.40
2023-12-12T23:57:48.631Z,10.50
